createdAt,value
2023-04-26T00:00:53.662Z,9.430412
2023-04-26T00:01:53.285Z,9.430329
2023-04-26T00:02:54.175Z,9.430369
2023-04-26T00:03:53.324Z,9.430391
2023-04-26T00:04:53.322Z,9.430405
2023-04-26T00:05:53.172Z,9.430378
2023-04-26T00:07:25.655Z,9.430367
2023-04-26T00:08:27.228Z,9.430370
2023-04-26T00:08:53.402Z,9.430394
2023-04-26T00:09:53.669Z,9.430386
2023-04-26T00:10:53.281Z,9.430397
2023-04-26T00:11:53.227Z,9.430361
2023-04-26T00:12:53.029Z,9.430351
2023-04-26T00:13:53.110Z,9.430395
2023-04-26T00:14:53.217Z,9.430409
2023-04-26T00:15:54.056Z,9.430360
2023-04-26T00:16:52.980Z,9.430326
2023-04-26T00:17:53.073Z,9.430371
2023-04-26T00:18:54.974Z,9.430354
2023-04-26T00:19:52.951Z,9.430363
2023-04-26T00:20:53.014Z,9.430358
2023-04-26T00:21:52.937Z,9.430379
2023-04-26T00:22:53.915Z,9.430363
2023-04-26T00:23:52.916Z,9.430402
2023-04-26T00:24:52.901Z,9.430414
2023-04-26T00:25:52.908Z,9.430378
2023-04-26T00:26:52.874Z,9.430402
2023-04-26T00:27:52.861Z,9.430391
2023-04-26T00:28:53.095Z,9.430376
2023-04-26T00:29:52.876Z,9.430348
2023-04-26T00:30:52.835Z,9.430408
2023-04-26T00:31:52.942Z,9.430403
2023-04-26T00:32:52.870Z,9.430382
2023-04-26T00:33:52.864Z,9.430313
2023-04-26T00:34:52.778Z,9.430360
2023-04-26T00:35:53.294Z,9.430365
2023-04-26T00:36:52.760Z,9.430382
2023-04-26T00:37:52.805Z,9.430384
2023-04-26T00:38:53.184Z,9.430348
2023-04-26T00:39:52.776Z,9.430360
2023-04-26T00:40:52.824Z,9.430352
2023-04-26T00:41:52.717Z,9.430346
2023-04-26T00:42:52.715Z,9.430320
2023-04-26T00:43:52.694Z,9.430363
2023-04-26T00:44:53.703Z,9.430376
2023-04-26T00:45:52.698Z,9.430422
2023-04-26T00:46:52.665Z,9.430389
2023-04-26T00:47:52.692Z,9.430408
2023-04-26T00:48:52.955Z,9.430330
2023-04-26T00:49:52.648Z,9.430396
2023-04-26T00:50:52.675Z,9.430359
2023-04-26T00:51:52.639Z,9.430396
2023-04-26T00:52:52.580Z,9.430390
2023-04-26T00:53:52.565Z,9.430418
2023-04-26T00:54:52.580Z,9.430396
2023-04-26T00:55:52.667Z,9.430361
2023-04-26T00:56:52.534Z,9.430338
2023-04-26T00:57:52.543Z,9.430348
2023-04-26T00:58:52.789Z,9.430337
2023-04-26T00:59:52.524Z,9.430364
2023-04-26T01:00:52.708Z,9.430402
2023-04-26T01:01:52.513Z,9.430388
2023-04-26T01:02:52.599Z,9.430404
2023-04-26T01:03:52.583Z,9.430385
2023-04-26T01:04:52.469Z,9.430364
2023-04-26T01:05:52.646Z,9.430374
2023-04-26T01:06:52.447Z,9.430378
2023-04-26T01:07:52.500Z,9.430377
2023-04-26T01:08:52.657Z,9.430351
2023-04-26T01:09:52.440Z,9.430363
2023-04-26T01:10:52.489Z,9.430386
2023-04-26T01:11:52.403Z,9.430352
2023-04-26T01:12:52.364Z,9.430355
2023-04-26T01:13:52.377Z,9.430358
2023-04-26T01:14:53.170Z,9.430397
2023-04-26T01:15:52.588Z,9.430399
2023-04-26T01:16:52.513Z,9.430375
2023-04-26T01:17:52.461Z,9.430371
2023-04-26T01:18:52.510Z,9.430375
2023-04-26T01:19:52.314Z,9.430370
2023-04-26T01:20:52.313Z,9.430405
2023-04-26T01:21:52.304Z,9.430356
2023-04-26T01:22:52.262Z,9.430371
2023-04-26T01:23:52.292Z,9.430327
2023-04-26T01:24:52.291Z,9.430325
2023-04-26T01:25:52.249Z,9.430354
2023-04-26T01:26:52.229Z,9.430375
2023-04-26T01:27:52.251Z,9.430342
2023-04-26T01:28:52.419Z,9.430366
2023-04-26T01:29:52.208Z,9.430369
2023-04-26T01:30:52.304Z,9.430317
2023-04-26T01:31:52.223Z,9.430285
2023-04-26T01:32:52.193Z,9.430310
2023-04-26T01:33:52.155Z,9.430322
2023-04-26T01:34:52.130Z,9.430337
2023-04-26T01:35:52.149Z,9.430323
2023-04-26T01:36:52.133Z,9.430322
2023-04-26T01:37:53.139Z,9.430309
2023-04-26T01:38:52.283Z,9.430336
2023-04-26T01:39:52.094Z,9.430283
2023-04-26T01:40:52.080Z,9.430365
2023-04-26T01:41:52.052Z,9.430309
2023-04-26T01:42:52.753Z,9.430340
2023-04-26T01:43:52.037Z,9.430349
2023-04-26T01:44:52.770Z,9.430302
2023-04-26T01:45:52.042Z,9.430399
2023-04-26T01:46:52.068Z,9.430388
2023-04-26T01:47:52.094Z,9.430370
2023-04-26T01:48:52.197Z,9.430399
2023-04-26T01:49:51.983Z,9.430278
2023-04-26T01:50:51.941Z,9.430330
2023-04-26T01:51:51.966Z,9.430449
2023-04-26T01:52:51.944Z,9.430383
2023-04-26T01:53:51.958Z,9.430328
2023-04-26T01:54:51.926Z,9.430336
2023-04-26T01:55:51.932Z,9.430372
2023-04-26T01:56:51.908Z,9.430403
2023-04-26T01:57:51.894Z,9.430368
2023-04-26T01:58:52.130Z,9.430354
2023-04-26T01:59:51.876Z,9.430383
2023-04-26T02:00:51.847Z,9.430305
2023-04-26T02:01:51.892Z,9.430399
2023-04-26T02:02:51.982Z,9.430479
2023-04-26T02:03:51.806Z,9.430323
2023-04-26T02:04:51.855Z,9.430277
2023-04-26T02:05:51.793Z,9.430257
2023-04-26T02:06:51.782Z,9.430263
2023-04-26T02:07:51.798Z,9.430329
2023-04-26T02:08:52.062Z,9.430317
2023-04-26T02:09:51.762Z,9.430402
2023-04-26T02:10:51.729Z,9.430346
2023-04-26T02:11:51.826Z,9.430402
2023-04-26T02:12:51.698Z,9.430387
2023-04-26T02:13:51.714Z,9.430365
2023-04-26T02:14:51.771Z,9.430383
2023-04-26T02:15:51.751Z,9.430351
2023-04-26T02:16:51.687Z,9.430306
2023-04-26T02:17:51.689Z,9.430328
2023-04-26T02:18:51.755Z,9.430439
2023-04-26T02:19:51.676Z,9.430397
2023-04-26T02:20:51.611Z,9.430447
2023-04-26T02:21:51.624Z,9.430460
2023-04-26T02:22:51.601Z,9.430395
2023-04-26T02:23:51.594Z,9.430420
2023-04-26T02:24:51.613Z,9.430528
2023-04-26T02:25:51.600Z,9.430499
2023-04-26T02:26:51.583Z,9.430408
2023-04-26T02:27:51.558Z,9.430326
2023-04-26T02:28:51.729Z,9.430334
2023-04-26T02:29:51.636Z,9.430335
2023-04-26T02:31:24.235Z,9.430364
2023-04-26T02:31:52.240Z,9.430311
2023-04-26T02:33:23.921Z,9.430346
2023-04-26T02:34:25.915Z,9.430366
2023-04-26T02:35:23.951Z,9.430344
2023-04-26T02:36:23.954Z,9.430327
2023-04-26T02:37:25.284Z,9.430326
2023-04-26T02:38:24.118Z,9.430388
2023-04-26T02:39:24.061Z,9.430352
2023-04-26T02:39:51.463Z,9.430302
2023-04-26T02:40:51.416Z,9.430314
2023-04-26T02:41:51.896Z,9.430344
2023-04-26T02:42:51.445Z,9.430277
2023-04-26T02:43:51.398Z,9.430343
2023-04-26T02:44:51.382Z,9.430343
2023-04-26T02:45:51.383Z,9.430335
2023-04-26T02:46:51.411Z,9.430367
2023-04-26T02:47:51.404Z,9.430338
2023-04-26T02:48:51.661Z,9.430378
2023-04-26T02:49:51.348Z,9.430386
2023-04-26T02:50:51.359Z,9.430311
2023-04-26T02:51:51.323Z,9.430297
2023-04-26T02:52:51.301Z,9.430336
2023-04-26T02:53:51.286Z,9.430328
2023-04-26T02:54:51.274Z,9.430328
2023-04-26T02:55:51.289Z,9.430330
2023-04-26T02:56:51.271Z,9.430319
2023-04-26T02:57:51.261Z,9.430296
2023-04-26T02:58:51.566Z,9.430289
2023-04-26T02:59:51.203Z,9.430286
2023-04-26T03:00:51.268Z,9.430332
2023-04-26T03:01:51.255Z,9.430323
2023-04-26T03:02:51.388Z,9.430328
2023-04-26T03:03:52.061Z,9.430329
2023-04-26T03:04:51.166Z,9.430344
2023-04-26T03:05:51.146Z,9.430301
2023-04-26T03:06:51.169Z,9.430316
2023-04-26T03:07:51.426Z,9.430306
2023-04-26T03:08:51.313Z,9.430331
2023-04-26T03:09:51.084Z,9.430301
2023-04-26T03:10:51.103Z,9.430329
2023-04-26T03:11:51.070Z,9.430320
2023-04-26T03:12:51.096Z,9.430344
2023-04-26T03:13:51.051Z,9.430344
2023-04-26T03:14:51.075Z,9.430327
2023-04-26T03:15:51.064Z,9.430324
2023-04-26T03:16:51.052Z,9.430307
2023-04-26T03:17:51.067Z,9.430245
2023-04-26T03:18:51.505Z,9.430290
2023-04-26T03:19:50.997Z,9.430291
2023-04-26T03:20:51.020Z,9.430320
2023-04-26T03:21:50.969Z,9.430334
2023-04-26T03:22:51.004Z,9.430264
2023-04-26T03:23:50.941Z,9.430275
2023-04-26T03:24:50.938Z,9.430330
2023-04-26T03:25:50.908Z,9.430341
2023-04-26T03:26:50.917Z,9.430293
2023-04-26T03:27:50.900Z,9.430297
2023-04-26T03:28:51.030Z,9.430306
2023-04-26T03:29:50.854Z,9.430295
2023-04-26T03:30:50.892Z,9.430287
2023-04-26T03:31:50.909Z,9.430313
2023-04-26T03:32:50.904Z,9.430300
2023-04-26T03:33:50.900Z,9.430324
2023-04-26T03:34:50.880Z,9.430319
2023-04-26T03:35:50.821Z,9.430280
2023-04-26T03:36:50.819Z,9.430351
2023-04-26T03:37:53.225Z,9.430283
2023-04-26T03:38:52.199Z,9.430270
2023-04-26T03:39:50.787Z,9.430276
2023-04-26T03:40:50.776Z,9.430296
2023-04-26T03:41:50.823Z,9.430257
2023-04-26T03:42:50.913Z,9.430281
2023-04-26T03:43:50.748Z,9.430333
2023-04-26T03:44:50.720Z,9.430317
2023-04-26T03:45:50.706Z,9.430302
2023-04-26T03:46:50.747Z,9.430331
2023-04-26T03:47:50.751Z,9.430340
2023-04-26T03:48:50.828Z,9.430305
2023-04-26T03:49:50.678Z,9.430320
2023-04-26T03:50:51.204Z,9.430319
2023-04-26T03:51:50.654Z,9.430275
2023-04-26T03:52:50.649Z,9.430341
2023-04-26T03:53:50.632Z,9.430305
2023-04-26T03:54:50.640Z,9.430299
2023-04-26T03:55:50.634Z,9.430288
2023-04-26T03:56:50.597Z,9.430292
2023-04-26T03:57:50.597Z,9.430311
2023-04-26T03:58:50.920Z,9.430318
2023-04-26T03:59:50.622Z,9.430302
2023-04-26T04:00:50.540Z,9.430337
2023-04-26T04:01:50.639Z,9.430307
2023-04-26T04:02:51.439Z,9.430330
2023-04-26T04:03:50.756Z,9.430301
2023-04-26T04:04:50.588Z,9.430343
2023-04-26T04:05:50.494Z,9.430332
2023-04-26T04:06:50.477Z,9.430329
2023-04-26T04:07:50.475Z,9.430341
2023-04-26T04:08:50.807Z,9.430331
2023-04-26T04:09:50.492Z,9.430331
2023-04-26T04:10:50.490Z,9.430339
2023-04-26T04:11:50.458Z,9.430348
2023-04-26T04:12:50.469Z,9.430318
2023-04-26T04:13:50.396Z,9.430302
2023-04-26T04:14:50.398Z,9.430309
2023-04-26T04:15:50.485Z,9.430324
2023-04-26T04:16:50.413Z,9.430325
2023-04-26T04:17:50.441Z,9.430326
2023-04-26T04:18:50.757Z,9.430350
2023-04-26T04:19:50.392Z,9.430334
2023-04-26T04:20:50.348Z,9.430328
2023-04-26T04:21:50.328Z,9.430352
2023-04-26T04:22:50.289Z,9.430359
2023-04-26T04:23:50.419Z,9.430343
2023-04-26T04:24:50.359Z,9.430324
2023-04-26T04:25:50.289Z,9.430335
2023-04-26T04:26:50.264Z,9.430347
2023-04-26T04:27:50.315Z,9.430328
2023-04-26T04:28:50.325Z,9.430326
2023-04-26T04:29:50.290Z,9.430328
2023-04-26T04:30:50.316Z,9.430340
2023-04-26T04:31:51.959Z,9.430340
2023-04-26T04:32:50.314Z,9.430338
2023-04-26T04:33:50.188Z,9.430353
2023-04-26T04:34:50.745Z,9.430339
2023-04-26T04:35:50.244Z,9.430326
2023-04-26T04:36:50.182Z,9.430372
2023-04-26T04:37:52.899Z,9.430334
2023-04-26T04:38:50.474Z,9.430307
2023-04-26T04:39:51.321Z,9.430320
2023-04-26T04:40:50.182Z,9.430319
2023-04-26T04:41:50.869Z,9.430300
2023-04-26T04:42:50.113Z,9.430297
2023-04-26T04:43:50.128Z,9.430343
2023-04-26T04:44:50.120Z,9.430314
2023-04-26T04:45:50.150Z,9.430313
2023-04-26T04:46:50.142Z,9.430350
2023-04-26T04:47:50.189Z,9.430375
2023-04-26T04:48:50.258Z,9.430355
2023-04-26T04:49:50.168Z,9.430322
2023-04-26T04:50:50.016Z,9.430316
2023-04-26T04:51:50.040Z,9.430409
2023-04-26T04:52:50.018Z,9.430414
2023-04-26T04:53:49.971Z,9.430379
2023-04-26T04:54:50.001Z,9.430307
2023-04-26T04:55:50.048Z,9.430287
2023-04-26T04:56:49.982Z,9.430311
2023-04-26T04:57:49.925Z,9.430332
2023-04-26T04:58:49.998Z,9.430312
2023-04-26T04:59:49.988Z,9.430354
2023-04-26T05:00:49.968Z,9.430361
2023-04-26T05:01:50.000Z,9.430337
2023-04-26T05:02:50.023Z,9.430342
2023-04-26T05:03:50.022Z,9.430336
2023-04-26T05:04:49.946Z,9.430336
2023-04-26T05:05:49.848Z,9.430355
2023-04-26T05:06:49.900Z,9.430340
2023-04-26T05:07:49.864Z,9.430393
2023-04-26T05:08:49.850Z,9.430367
2023-04-26T05:09:49.787Z,9.430378
2023-04-26T05:10:49.888Z,9.430359
2023-04-26T05:11:49.825Z,9.430362
2023-04-26T05:12:49.827Z,9.430367
2023-04-26T05:13:52.272Z,9.430386
2023-04-26T05:14:49.788Z,9.430372
2023-04-26T05:15:49.858Z,9.430378
2023-04-26T05:16:50.009Z,9.430371
2023-04-26T05:17:50.789Z,9.430345
2023-04-26T05:18:49.792Z,9.430358
2023-04-26T05:19:49.702Z,9.430356
2023-04-26T05:20:49.715Z,9.430364
2023-04-26T05:21:49.692Z,9.430399
2023-04-26T05:22:49.741Z,9.430300
2023-04-26T05:23:49.701Z,9.430346
2023-04-26T05:24:50.820Z,9.430323
2023-04-26T05:25:50.450Z,9.430365
2023-04-26T05:26:49.648Z,9.430338
2023-04-26T05:27:49.704Z,9.430315
2023-04-26T05:28:49.641Z,9.430326
2023-04-26T05:29:49.618Z,9.430343
2023-04-26T05:30:49.629Z,9.430234
2023-04-26T05:31:49.693Z,9.430306
2023-04-26T05:32:50.340Z,9.430332
2023-04-26T05:33:49.929Z,9.430324
2023-04-26T05:34:49.748Z,9.430298
2023-04-26T05:35:49.522Z,9.430313
2023-04-26T05:36:49.570Z,9.430358
2023-04-26T05:37:49.518Z,9.430386
2023-04-26T05:38:49.579Z,9.430317
2023-04-26T05:39:49.542Z,9.430337
2023-04-26T05:40:49.477Z,9.430288
2023-04-26T05:41:49.516Z,9.430341
2023-04-26T05:42:49.538Z,9.430328
2023-04-26T05:43:49.449Z,9.430272
2023-04-26T05:44:49.473Z,9.430331
2023-04-26T05:45:49.463Z,9.430346
2023-04-26T05:46:49.456Z,9.430326
2023-04-26T05:47:49.528Z,9.430326
2023-04-26T05:48:49.439Z,9.430294
2023-04-26T05:49:49.475Z,9.430278
2023-04-26T05:50:49.382Z,9.430316
2023-04-26T05:51:49.387Z,9.430335
2023-04-26T05:52:49.549Z,9.430338
2023-04-26T05:53:49.486Z,9.430343
2023-04-26T05:54:49.382Z,9.430339
2023-04-26T05:55:49.880Z,9.430328
2023-04-26T05:56:50.340Z,9.430330
2023-04-26T05:57:49.315Z,9.430380
2023-04-26T05:58:49.286Z,9.430398
2023-04-26T05:59:49.274Z,9.430373
2023-04-26T06:00:49.242Z,9.430347
2023-04-26T06:01:49.344Z,9.430308
2023-04-26T06:02:49.357Z,9.430336
2023-04-26T06:03:49.503Z,9.430355
2023-04-26T06:04:49.367Z,9.430373
2023-04-26T06:05:49.323Z,9.430370
2023-04-26T06:06:49.224Z,9.430296
2023-04-26T06:07:49.164Z,9.430305
2023-04-26T06:08:49.164Z,9.430341
2023-04-26T06:09:49.322Z,9.430344
2023-04-26T06:10:49.147Z,9.430334
2023-04-26T06:11:49.139Z,9.430333
2023-04-26T06:12:49.166Z,9.430366
2023-04-26T06:13:49.293Z,9.430347
2023-04-26T06:14:49.267Z,9.430343
2023-04-26T06:15:49.143Z,9.430353
2023-04-26T06:16:49.176Z,9.430335
2023-04-26T06:17:50.164Z,9.430297
2023-04-26T06:18:49.231Z,9.430309
2023-04-26T06:19:49.071Z,9.430313
2023-04-26T06:20:49.255Z,9.430324
2023-04-26T06:21:49.110Z,9.430357
2023-04-26T06:22:49.071Z,9.430367
2023-04-26T06:23:49.054Z,9.430349
2023-04-26T06:24:49.382Z,9.430346
2023-04-26T06:25:49.238Z,9.430348
2023-04-26T06:26:48.989Z,9.430368
2023-04-26T06:27:49.032Z,9.430367
2023-04-26T06:28:48.969Z,9.430325
2023-04-26T06:29:48.965Z,9.430340
2023-04-26T06:30:49.095Z,9.430362
2023-04-26T06:31:48.944Z,9.430356
2023-04-26T06:32:48.979Z,9.430372
2023-04-26T06:33:48.940Z,9.430371
2023-04-26T06:34:48.907Z,9.430345
2023-04-26T06:35:48.881Z,9.430310
2023-04-26T06:36:49.940Z,9.430357
2023-04-26T06:37:48.838Z,9.430336
2023-04-26T06:38:48.918Z,9.430312
2023-04-26T06:39:49.741Z,9.430328
2023-04-26T06:40:49.156Z,9.430329
2023-04-26T06:41:50.430Z,9.430322
2023-04-26T06:42:48.821Z,9.430307
2023-04-26T06:43:48.828Z,9.430296
2023-04-26T06:44:48.802Z,9.430296
2023-04-26T06:45:48.826Z,9.430313
2023-04-26T06:46:48.898Z,9.430297
2023-04-26T06:47:48.894Z,9.430322
2023-04-26T06:48:48.778Z,9.430285
2023-04-26T06:49:48.736Z,9.430308
2023-04-26T06:50:48.798Z,9.430332
2023-04-26T06:51:48.717Z,9.430335
2023-04-26T06:52:48.713Z,9.430317
2023-04-26T06:53:48.791Z,9.430330
2023-04-26T06:54:56.663Z,9.430326
2023-04-26T06:55:50.861Z,9.430315
2023-04-26T06:56:48.664Z,9.430321
2023-04-26T06:57:48.714Z,9.430319
2023-04-26T06:58:48.632Z,9.430337
2023-04-26T06:59:48.643Z,9.430330
2023-04-26T07:00:48.575Z,9.430322
2023-04-26T07:01:48.713Z,9.430327
2023-04-26T07:02:48.717Z,9.430326
2023-04-26T07:03:49.530Z,9.430324
2023-04-26T07:04:48.820Z,9.430322
2023-04-26T07:05:48.585Z,9.430333
2023-04-26T07:06:48.579Z,9.430314
2023-04-26T07:07:48.538Z,9.430333
2023-04-26T07:08:48.522Z,9.430343
2023-04-26T07:09:48.512Z,9.430346
2023-04-26T07:10:48.521Z,9.430358
2023-04-26T07:11:48.549Z,9.430366
2023-04-26T07:12:48.519Z,9.430344
2023-04-26T07:13:48.487Z,9.430317
2023-04-26T07:14:48.502Z,9.430322
2023-04-26T07:15:48.581Z,9.430290
2023-04-26T07:16:48.475Z,9.430332
2023-04-26T07:17:48.569Z,9.430386
2023-04-26T07:18:48.432Z,9.430391
2023-04-26T07:19:48.494Z,9.430398
2023-04-26T07:20:48.460Z,9.430355
2023-04-26T07:21:48.416Z,9.430352
2023-04-26T07:22:48.411Z,9.430374
2023-04-26T07:23:48.390Z,9.430379
2023-04-26T07:24:48.358Z,9.430386
2023-04-26T07:25:48.445Z,9.430367
2023-04-26T07:26:48.391Z,9.430398
2023-04-26T07:27:48.314Z,9.430384
2023-04-26T07:28:48.282Z,9.430351
2023-04-26T07:29:48.426Z,9.430328
2023-04-26T07:30:48.418Z,9.430329
2023-04-26T07:31:48.292Z,9.430326
2023-04-26T07:32:48.327Z,9.430328
2023-04-26T07:33:48.309Z,9.430348
2023-04-26T07:34:48.280Z,9.430366
2023-04-26T07:35:48.235Z,9.430373
2023-04-26T07:36:48.309Z,9.430333
2023-04-26T07:37:48.420Z,9.430350
2023-04-26T07:38:48.186Z,9.430341
2023-04-26T07:39:48.325Z,9.430392
2023-04-26T07:40:48.157Z,9.430410
2023-04-26T07:41:48.165Z,9.430390
2023-04-26T07:42:48.211Z,9.430356
2023-04-26T07:43:48.117Z,9.430383
2023-04-26T07:44:48.093Z,9.430313
2023-04-26T07:45:48.124Z,9.430354
2023-04-26T07:46:48.387Z,9.430346
2023-04-26T07:47:48.215Z,9.430370
2023-04-26T07:48:48.143Z,9.430346
2023-04-26T07:49:48.379Z,9.430387
2023-04-26T07:50:48.075Z,9.430344
2023-04-26T07:51:48.140Z,9.430351
2023-04-26T07:52:48.028Z,9.430374
2023-04-26T07:53:48.051Z,9.430377
2023-04-26T07:54:48.026Z,9.430344
2023-04-26T07:59:47.198Z,9.430357
2023-04-26T08:00:47.009Z,9.430373
2023-04-26T08:01:47.065Z,9.430370
2023-04-26T08:02:47.114Z,9.430352
2023-04-26T08:03:47.834Z,9.430365
2023-04-26T08:04:47.977Z,9.430399
2023-04-26T08:05:47.937Z,9.430386
2023-04-26T08:06:47.394Z,9.430373
2023-04-26T08:07:47.202Z,9.430376
2023-04-26T08:08:47.273Z,9.430372
2023-04-26T08:09:47.005Z,9.430384
2023-04-26T08:10:46.924Z,9.430375
2023-04-26T08:11:46.953Z,9.430385
2023-04-26T08:12:46.862Z,9.430388
2023-04-26T08:13:47.369Z,9.430359
2023-04-26T08:14:47.071Z,9.430367
2023-04-26T08:15:47.415Z,9.430366
2023-04-26T08:17:15.353Z,9.430366
2023-04-26T08:18:14.876Z,9.430411
2023-04-26T08:19:15.426Z,9.430387
2023-04-26T08:20:14.847Z,9.430414
2023-04-26T08:21:14.755Z,9.430372
2023-04-26T08:22:14.850Z,9.430375
2023-04-26T08:23:16.262Z,9.430377
2023-04-26T08:24:15.464Z,9.430334
2023-04-26T08:25:14.787Z,9.430399
2023-04-26T08:26:14.769Z,9.430401
2023-04-26T08:27:15.215Z,9.430381
2023-04-26T08:28:14.973Z,9.430399
2023-04-26T08:29:14.737Z,9.430387
2023-04-26T08:30:14.706Z,9.430356
2023-04-26T08:31:16.985Z,9.430406
2023-04-26T08:32:14.698Z,9.430370
2023-04-26T08:33:14.630Z,9.430348
2023-04-26T08:34:14.814Z,9.430366
2023-04-26T08:35:14.677Z,9.430387
2023-04-26T08:36:14.799Z,9.430392
2023-04-26T08:37:14.705Z,9.430401
2023-04-26T08:38:14.647Z,9.430320
2023-04-26T08:39:16.006Z,9.430351
2023-04-26T08:40:15.235Z,9.430367
2023-04-26T08:41:14.854Z,9.430370
2023-04-26T08:42:15.497Z,9.430371
2023-04-26T08:43:14.730Z,9.430370
2023-04-26T08:44:14.531Z,9.430377
2023-04-26T08:45:14.532Z,9.430362
2023-04-26T08:46:14.557Z,9.430336
2023-04-26T08:47:14.624Z,9.430365
2023-04-26T08:48:14.463Z,9.430356
2023-04-26T08:49:14.571Z,9.430387
2023-04-26T08:50:14.487Z,9.430371
2023-04-26T08:51:14.470Z,9.430380
2023-04-26T08:52:14.510Z,9.430377
2023-04-26T08:53:14.621Z,9.430323
2023-04-26T08:54:14.508Z,9.430358
2023-04-26T08:55:14.796Z,9.430378
2023-04-26T08:56:14.762Z,9.430355
2023-04-26T08:57:14.794Z,9.430362
2023-04-26T08:58:14.765Z,9.430392
2023-04-26T08:59:35.761Z,9.430368
2023-04-26T09:00:15.257Z,9.430338
2023-04-26T09:01:17.464Z,9.430365
2023-04-26T09:02:14.805Z,9.430348
2023-04-26T09:03:15.163Z,9.430362
2023-04-26T09:04:14.574Z,9.430338
2023-04-26T09:05:15.338Z,9.430361
2023-04-26T09:06:14.748Z,9.430379
2023-04-26T09:07:14.963Z,9.430368
2023-04-26T09:08:14.218Z,9.430372
2023-04-26T09:09:25.489Z,9.430359
2023-04-26T09:10:14.677Z,9.430373
2023-04-26T09:11:14.851Z,9.430397
2023-04-26T09:12:14.220Z,9.430387
2023-04-26T09:13:14.318Z,9.430326
2023-04-26T09:14:14.297Z,9.430290
2023-04-26T09:15:14.388Z,9.430294
2023-04-26T09:16:14.643Z,9.430306
2023-04-26T09:17:14.475Z,9.430281
2023-04-26T09:20:17.491Z,9.430319
2023-04-26T09:22:39.469Z,9.430323
2023-04-26T09:22:41.051Z,9.430323
2023-04-26T09:23:41.073Z,9.430366
2023-04-26T09:24:41.009Z,9.430307
2023-04-26T09:25:41.031Z,9.430324
2023-04-26T09:26:41.571Z,9.430362
2023-04-26T09:27:41.003Z,9.430351
2023-04-26T09:28:40.987Z,9.430343
2023-04-26T09:29:41.245Z,9.430351
2023-04-26T09:30:40.958Z,9.430365
2023-04-26T09:31:41.191Z,9.430370
2023-04-26T09:32:41.888Z,9.430314
2023-04-26T09:33:40.981Z,9.430317
2023-04-26T09:34:41.230Z,9.430316
2023-04-26T09:35:41.250Z,9.430333
2023-04-26T09:36:40.929Z,9.430303
2023-04-26T09:37:50.842Z,9.430310
2023-04-26T09:38:43.301Z,9.430326
2023-04-26T09:39:41.450Z,9.430306
2023-04-26T09:40:40.938Z,9.430347
2023-04-26T09:41:40.973Z,9.430335
2023-04-26T09:42:40.934Z,9.430344
2023-04-26T09:43:41.149Z,9.430326
2023-04-26T09:44:41.536Z,9.430311
2023-04-26T09:45:40.798Z,9.430346
2023-04-26T09:46:41.210Z,9.430324
2023-04-26T09:47:41.043Z,9.430330
2023-04-26T09:48:41.087Z,9.430309
2023-04-26T09:49:40.879Z,9.430285
2023-04-26T09:50:41.953Z,9.430293
2023-04-26T09:51:40.683Z,9.430301
2023-04-26T09:54:13.180Z,9.430326
2023-04-26T09:58:04.953Z,9.430343
2023-04-26T09:58:06.691Z,9.430343
2023-04-26T09:59:06.842Z,9.430291
2023-04-26T10:01:28.133Z,9.430258
2023-04-26T10:01:30.650Z,9.430258
2023-04-26T10:02:29.969Z,9.430306
2023-04-26T10:03:30.305Z,9.430320
2023-04-26T10:04:30.505Z,9.430306
2023-04-26T10:05:31.641Z,9.430339
2023-04-26T10:06:30.844Z,9.430332
2023-04-26T10:07:31.732Z,9.430314
2023-04-26T10:08:30.531Z,9.430321
2023-04-26T10:09:30.040Z,9.430319
2023-04-26T10:10:29.851Z,9.430326
2023-04-26T10:11:30.911Z,9.430331
2023-04-26T10:12:30.122Z,9.430321
2023-04-26T10:13:29.697Z,9.430297
2023-04-26T10:14:29.809Z,9.430319
2023-04-26T10:15:30.038Z,9.430305
2023-04-26T10:16:29.877Z,9.430307
2023-04-26T10:17:29.899Z,9.430310
2023-04-26T10:18:29.802Z,9.430336
2023-04-26T10:19:38.835Z,9.430335
2023-04-26T10:20:29.727Z,9.430321
2023-04-26T10:21:29.874Z,9.430311
2023-04-26T10:22:29.796Z,9.430326
2023-04-26T10:23:29.965Z,9.430306
2023-04-26T10:24:29.722Z,9.430298
2023-04-26T10:25:29.797Z,9.430327
2023-04-26T10:26:29.709Z,9.430349
2023-04-26T10:27:29.920Z,9.430324
2023-04-26T10:28:29.792Z,9.430311
2023-04-26T10:29:29.691Z,9.430326
2023-04-26T10:30:29.801Z,9.430316
2023-04-26T10:32:53.980Z,9.430316
2023-04-26T10:32:57.739Z,9.430316
2023-04-26T10:41:32.664Z,9.430323
2023-04-26T10:41:39.514Z,9.430323
2023-04-26T10:44:12.564Z,9.430315
2023-04-26T10:58:37.669Z,9.430374
2023-04-26T10:59:51.128Z,9.430316
2023-04-26T11:02:04.444Z,9.430306
2023-04-26T11:25:14.883Z,9.430396
2023-04-26T11:30:15.546Z,9.430396
2023-04-26T11:45:52.759Z,9.430356
2023-04-26T11:45:55.296Z,9.430356
2023-04-26T11:46:55.326Z,9.430362
2023-04-26T11:49:21.613Z,9.430378
2023-04-26T11:51:52.944Z,9.430378
2023-04-26T11:54:16.280Z,9.430350
2023-04-26T11:54:18.156Z,9.430350
2023-04-26T11:55:18.195Z,9.430364
2023-04-26T11:56:18.015Z,9.430373
2023-04-26T11:57:18.360Z,9.430407
2023-04-26T11:58:17.876Z,9.430407
2023-04-26T11:59:17.752Z,9.430352
2023-04-26T12:00:17.876Z,9.430379
2023-04-26T12:01:17.989Z,9.430401
2023-04-26T12:02:17.837Z,9.430414
2023-04-26T12:03:17.973Z,9.430387
2023-04-26T12:04:18.158Z,9.430366
2023-04-26T12:05:17.855Z,9.430388
2023-04-26T12:06:17.794Z,9.430367
2023-04-26T12:07:17.817Z,9.430358
2023-04-26T12:08:51.911Z,9.430324
2023-04-26T12:09:17.640Z,9.430358
2023-04-26T12:10:17.625Z,9.430382
2023-04-26T12:11:17.568Z,9.430384
2023-04-26T12:12:17.675Z,9.430362
2023-04-26T12:13:17.652Z,9.430329
2023-04-26T12:14:17.616Z,9.430348
2023-04-26T12:15:23.236Z,9.430309
2023-04-26T12:17:18.556Z,9.430317
2023-04-26T12:18:17.727Z,9.430314
2023-04-26T12:19:17.551Z,9.430344
2023-04-26T12:20:18.433Z,9.430357
2023-04-26T12:21:17.546Z,9.430326
2023-04-26T12:22:17.668Z,9.430316
2023-04-26T12:23:17.562Z,9.430353
2023-04-26T12:24:17.568Z,9.430417
2023-04-26T12:25:17.413Z,9.430425
2023-04-26T12:26:17.465Z,9.430465
2023-04-26T12:27:17.449Z,9.430410
2023-04-26T12:28:17.676Z,9.430405
2023-04-26T12:29:17.495Z,9.430425
2023-04-26T12:30:17.614Z,9.430387
2023-04-26T12:31:17.574Z,9.430376
2023-04-26T12:32:17.724Z,9.430385
2023-04-26T12:33:18.069Z,9.430396
2023-04-26T12:34:18.460Z,9.430387
2023-04-26T12:35:17.309Z,9.430389
2023-04-26T12:36:17.329Z,9.430413
2023-04-26T12:37:18.096Z,9.430410
2023-04-26T12:38:17.399Z,9.430382
2023-04-26T12:39:17.413Z,9.430408
2023-04-26T12:40:17.294Z,9.430384
2023-04-26T12:41:17.263Z,9.430384
2023-04-26T12:42:17.274Z,9.430402
2023-04-26T12:43:17.745Z,9.430465
2023-04-26T12:44:17.913Z,9.430460
2023-04-26T12:45:17.181Z,9.430431
2023-04-26T12:46:17.286Z,9.430397
2023-04-26T12:47:17.261Z,9.430360
2023-04-26T12:48:17.532Z,9.430401
2023-04-26T12:49:17.292Z,9.430421
2023-04-26T12:50:18.638Z,9.430383
2023-04-26T12:51:18.172Z,9.430412
2023-04-26T12:52:17.127Z,9.430347
2023-04-26T12:53:17.279Z,9.430377
2023-04-26T12:54:17.149Z,9.430360
2023-04-26T12:55:17.148Z,9.430326
2023-04-26T12:56:17.108Z,9.430328
2023-04-26T12:57:17.056Z,9.430332
2023-04-26T12:58:17.120Z,9.430337
2023-04-26T12:59:17.072Z,9.430359
2023-04-26T13:00:17.038Z,9.430356
2023-04-26T13:01:17.102Z,9.430346
2023-04-26T13:02:17.105Z,9.430388
2023-04-26T13:03:17.146Z,9.430364